Map

Track Data

SID SEASON NUMBER BASIN SUBBASIN NAME ISO_TIME NATURE LAT LON WMO_WIND WMO_PRES WMO_AGENCY TRACK_TYPE DIST2LAND LANDFALL IFLAG USA_AGENCY USA_ATCF_ID USA_LAT USA_LON USA_RECORD USA_STATUS USA_WIND USA_PRES USA_SSHS USA_R34_NE USA_R34_SE USA_R34_SW USA_R34_NW USA_R50_NE USA_R50_SE USA_R50_SW USA_R50_NW USA_R64_NE USA_R64_SE USA_R64_SW USA_R64_NW USA_POCI USA_ROCI USA_RMW USA_EYE TOKYO_LAT TOKYO_LON TOKYO_GRADE TOKYO_WIND TOKYO_PRES TOKYO_R50_DIR TOKYO_R50_LONG TOKYO_R50_SHORT TOKYO_R30_DIR TOKYO_R30_LONG TOKYO_R30_SHORT TOKYO_LAND CMA_LAT CMA_LON CMA_CAT CMA_WIND CMA_PRES HKO_LAT HKO_LON HKO_CAT HKO_WIND HKO_PRES NEWDELHI_LAT NEWDELHI_LON NEWDELHI_GRADE NEWDELHI_WIND NEWDELHI_PRES NEWDELHI_CI NEWDELHI_DP NEWDELHI_POCI REUNION_LAT REUNION_LON REUNION_TYPE REUNION_WIND REUNION_PRES REUNION_TNUM REUNION_CI REUNION_RMW REUNION_R34_NE REUNION_R34_SE REUNION_R34_SW REUNION_R34_NW REUNION_R50_NE REUNION_R50_SE REUNION_R50_SW REUNION_R50_NW REUNION_R64_NE REUNION_R64_SE REUNION_R64_SW REUNION_R64_NW BOM_LAT BOM_LON BOM_TYPE BOM_WIND BOM_PRES BOM_TNUM BOM_CI BOM_RMW BOM_R34_NE BOM_R34_SE BOM_R34_SW BOM_R34_NW BOM_R50_NE BOM_R50_SE BOM_R50_SW BOM_R50_NW BOM_R64_NE BOM_R64_SE BOM_R64_SW BOM_R64_NW BOM_ROCI BOM_POCI BOM_EYE BOM_POS_METHOD BOM_PRES_METHOD NADI_LAT NADI_LON NADI_CAT NADI_WIND NADI_PRES WELLINGTON_LAT WELLINGTON_LON WELLINGTON_WIND WELLINGTON_PRES DS824_LAT DS824_LON DS824_STAGE DS824_WIND DS824_PRES TD9636_LAT TD9636_LON TD9636_STAGE TD9636_WIND TD9636_PRES TD9635_LAT TD9635_LON TD9635_WIND TD9635_PRES TD9635_ROCI NEUMANN_LAT NEUMANN_LON NEUMANN_CLASS NEUMANN_WIND NEUMANN_PRES MLC_LAT MLC_LON MLC_CLASS MLC_WIND MLC_PRES USA_GUST BOM_GUST BOM_GUST_PER REUNION_GUST REUNION_GUST_PER USA_SEAHGT USA_SEARAD_NE USA_SEARAD_SE USA_SEARAD_SW USA_SEARAD_NW STORM_SPEED STORM_DIR
1930199N12147 1930 34 WP MM NOT_NAMED 1930-07-18 10:00:00 NR 11.9000 147.000 main 1568 1568 __________O___ -1 11.9000 147.000 4 4 289
1930199N12147 1930 34 WP MM NOT_NAMED 1930-07-18 12:00:00 NR 11.9412 146.876 main 1568 1568 __________P___ -1 11.9412 146.876 4 4 288
1930199N12147 1930 34 WP MM NOT_NAMED 1930-07-18 15:00:00 NR 12.0064 146.675 main 1579 1579 __________P___ -1 12.0064 146.675 4 5 288
1930199N12147 1930 34 WP MM NOT_NAMED 1930-07-18 18:00:00 NR 12.0800 146.432 main 1591 1591 __________P___ -1 12.0800 146.432 4 6 287
1930199N12147 1930 34 WP MM NOT_NAMED 1930-07-18 21:00:00 NR 12.1671 146.122 main 1603 1603 __________P___ -1 12.1671 146.122 4 7 286
1930199N12147 1930 34 WP MM NOT_NAMED 1930-07-18 22:00:00 NR 12.2000 146.000 main 1603 1603 __________O___ -1 12.2000 146.000 4 8 285
1930199N12147 1930 34 WP MM NOT_NAMED 1930-07-19 00:00:00 NR 12.2721 145.724 main 1616 1616 __________P___ -1 12.2721 145.724 4 9 285
1930199N12147 1930 34 WP MM NOT_NAMED 1930-07-19 03:00:00 NR 12.3927 145.246 main 1631 1631 __________P___ -1 12.3927 145.246 4 10 284
1930199N12147 1930 34 WP MM NOT_NAMED 1930-07-19 06:00:00 NR 12.5227 144.721 main 1649 1649 __________P___ -1 12.5227 144.721 4 11 284
1930199N12147 1930 34 WP MM NOT_NAMED 1930-07-19 09:00:00 NR 12.6559 144.179 main 1679 1681 __________P___ -1 12.6559 144.179 4 11 284
1930199N12147 1930 34 WP MM NOT_NAMED 1930-07-19 10:00:00 NR 12.7000 144.000 main 1682 1682 __________O___ -1 12.7000 144.000 4 10 285
1930199N12147 1930 34 WP MM NOT_NAMED 1930-07-19 12:00:00 NR 12.7855 143.682 main 1699 1699 __________P___ -1 12.7855 143.682 4 10 285
1930199N12147 1930 34 WP MM NOT_NAMED 1930-07-19 15:00:00 NR 12.9141 143.206 main 1715 1709 __________P___ -1 12.9141 143.206 4 10 285
1930199N12147 1930 34 WP MM NOT_NAMED 1930-07-19 18:00:00 NR 13.0404 142.714 main 1709 1705 __________P___ -1 13.0404 142.714 4 10 284
1930199N12147 1930 34 WP MM NOT_NAMED 1930-07-19 21:00:00 NR 13.1614 142.187 main 1715 1706 __________P___ -1 13.1614 142.187 4 11 283
1930199N12147 1930 34 WP MM NOT_NAMED 1930-07-19 22:00:00 NR 13.2000 142.000 main 1706 1694 __________O___ -1 13.2000 142.000 4 12 280
1930199N12147 1930 34 WP MM NOT_NAMED 1930-07-20 00:00:00 NR 13.2672 141.598 main 1700 1674 __________P___ -1 13.2672 141.598 4 12 279
1930199N12147 1930 34 WP MM NOT_NAMED 1930-07-20 03:00:00 NR 13.3615 140.957 main 1674 1600 __________P___ -1 13.3615 140.957 4 13 278
1930199N12147 1930 34 WP MM NOT_NAMED 1930-07-20 06:00:00 NR 13.4563 140.291 main 1600 1527 __________P___ -1 13.4563 140.291 4 13 279
1930199N12147 1930 34 WP MM NOT_NAMED 1930-07-20 09:00:00 NR 13.5612 139.621 main 1527 1506 __________P___ -1 13.5612 139.621 4 13 279
1930199N12147 1930 34 WP MM NOT_NAMED 1930-07-20 10:00:00 NR 13.6000 139.400 main 1506 1465 __________O___ -1 13.6000 139.400 4 13 282
1930199N12147 1930 34 WP MM NOT_NAMED 1930-07-20 12:00:00 NR 13.6908 138.978 main 1465 1404 __________P___ -1 13.6908 138.978 4 13 283
1930199N12147 1930 34 WP MM NOT_NAMED 1930-07-20 15:00:00 NR 13.8400 138.350 main 1404 1335 __________P___ -1 13.8400 138.350 4 13 284
1930199N12147 1930 34 WP MM NOT_NAMED 1930-07-20 18:00:00 NR 13.9964 137.728 main 1335 1274 __________P___ -1 13.9964 137.728 4 12 284
1930199N12147 1930 34 WP MM NOT_NAMED 1930-07-20 21:00:00 NR 14.1507 137.107 main 1276 1254 __________P___ -1 14.1507 137.107 4 12 284
1930199N12147 1930 34 WP MM NOT_NAMED 1930-07-20 22:00:00 NR 14.2000 136.900 main 1254 1214 __________O___ -1 14.2000 136.900 4 13 283
1930199N12147 1930 34 WP MM NOT_NAMED 1930-07-21 00:00:00 NR 14.2888 136.478 main 1214 1141 __________P___ -1 14.2888 136.478 4 13 282
1930199N12147 1930 34 WP MM NOT_NAMED 1930-07-21 03:00:00 NR 14.4159 135.845 main 1141 1081 __________P___ -1 14.4159 135.845 4 12 282
1930199N12147 1930 34 WP MM NOT_NAMED 1930-07-21 06:00:00 NR 14.5384 135.217 main 1081 1023 __________P___ -1 14.5384 135.217 4 12 281
1930199N12147 1930 34 WP MM NOT_NAMED 1930-07-21 09:00:00 NR 14.6594 134.602 main 1023 1002 __________P___ -1 14.6594 134.602 4 12 282
1930199N12147 1930 34 WP MM NOT_NAMED 1930-07-21 10:00:00 NR 14.7000 134.400 main 1002 964 __________O___ -1 14.7000 134.400 4 11 283
1930199N12147 1930 34 WP MM NOT_NAMED 1930-07-21 12:00:00 NR 14.7822 134.036 main 964 916 __________P___ -1 14.7822 134.036 4 11 283
1930199N12147 1930 34 WP MM NOT_NAMED 1930-07-21 15:00:00 NR 14.9061 133.504 main 916 859 __________P___ -1 14.9061 133.504 4 11 283
1930199N12147 1930 34 WP MM NOT_NAMED 1930-07-21 18:00:00 NR 15.0311 132.950 main 859 808 __________P___ -1 15.0311 132.950 4 12 282
1930199N12147 1930 34 WP MM NOT_NAMED 1930-07-21 21:00:00 NR 15.1576 132.329 main 808 788 __________P___ -1 15.1576 132.329 4 13 282
1930199N12147 1930 34 WP MM NOT_NAMED 1930-07-21 22:00:00 NR 15.2000 132.100 main 788 744 __________O___ -1 15.2000 132.100 4 15 280
1930199N12147 1930 34 WP MM NOT_NAMED 1930-07-22 00:00:00 NR 15.2921 131.565 main 744 666 __________P___ -1 15.2921 131.565 4 17 280
1930199N12147 1930 34 WP MM NOT_NAMED 1930-07-22 03:00:00 NR 15.4299 130.685 main 666 600 __________P___ -1 15.4299 130.685 4 18 279
1930199N12147 1930 34 WP MM NOT_NAMED 1930-07-22 06:00:00 NR 15.5586 129.769 main 600 524 __________P___ -1 15.5586 129.769 4 18 278
1930199N12147 1930 34 WP MM NOT_NAMED 1930-07-22 09:00:00 NR 15.6688 128.880 main 524 494 __________P___ -1 15.6688 128.880 4 17 277
1930199N12147 1930 34 WP MM NOT_NAMED 1930-07-22 10:00:00 NR 15.7000 128.600 main 494 451 __________O___ -1 15.7000 128.600 4 15 277
1930199N12147 1930 34 WP MM NOT_NAMED 1930-07-22 12:00:00 NR 15.7512 128.130 main 451 395 __________P___ -1 15.7512 128.130 4 13 276
1930199N12147 1930 34 WP MM NOT_NAMED 1930-07-22 15:00:00 NR 15.8104 127.477 main 395 341 __________P___ -1 15.8104 127.477 4 13 275
1930199N12147 1930 34 WP MM NOT_NAMED 1930-07-22 18:00:00 NR 15.8543 126.835 main 341 287 __________P___ -1 15.8543 126.835 4 13 274
1930199N12147 1930 34 WP MM NOT_NAMED 1930-07-22 21:00:00 NR 15.8893 126.149 main 287 273 __________P___ -1 15.8893 126.149 4 14 273
1930199N12147 1930 34 WP MM NOT_NAMED 1930-07-22 22:00:00 NR 15.9000 125.900 main 273 238 __________O___ -1 15.9000 125.900 4 16 272
1930199N12147 1930 34 WP MM NOT_NAMED 1930-07-23 00:00:00 NR 15.9173 125.337 main 238 212 __________P___ -1 15.9173 125.337 4 17 271
1930199N12147 1930 34 WP MM NOT_NAMED 1930-07-23 03:00:00 NR 15.9368 124.431 main 212 140 __________P___ -1 15.9368 124.431 4 18 271
1930199N12147 1930 34 WP MM NOT_NAMED 1930-07-23 06:00:00 NR 15.9565 123.479 main 140 39 __________P___ -1 15.9565 123.479 4 18 272
1930199N12147 1930 34 WP MM NOT_NAMED 1930-07-23 09:00:00 NR 15.9861 122.517 main 39 24 __________P___ -1 15.9861 122.517 4 18 272
1930199N12147 1930 34 WP MM NOT_NAMED 1930-07-23 10:00:00 NR 16.0000 122.200 main 15 0 __________O___ -1 16.0000 122.200 4 19 272
1930199N12147 1930 34 WP MM NOT_NAMED 1930-07-23 12:00:00 NR 16.0230 121.555 main 0 0 __________P___ -1 16.0230 121.555 4 19 273
1930199N12147 1930 34 WP MM NOT_NAMED 1930-07-23 15:00:00 NR 16.0700 120.593 main 0 0 __________P___ -1 16.0700 120.593 4 18 274
1930199N12147 1930 34 WP MM NOT_NAMED 1930-07-23 18:00:00 NR 16.1424 119.676 main 10 15 __________P___ -1 16.1424 119.676 4 17 276
1930199N12147 1930 34 WP MM NOT_NAMED 1930-07-23 21:00:00 NR 16.2527 118.848 main 101 101 __________P___ -1 16.2527 118.848 4 16 279
1930199N12147 1930 34 WP MM NOT_NAMED 1930-07-23 22:00:00 NR 16.3000 118.600 main 122 122 __________O___ -1 16.3000 118.600 4 14 280
1930199N12147 1930 34 WP MM NOT_NAMED 1930-07-24 00:00:00 NR 16.3753 118.135 main 176 176 __________P___ -1 16.3753 118.135 4 13 282
1930199N12147 1930 34 WP MM NOT_NAMED 1930-07-24 03:00:00 NR 16.5263 117.532 main 241 241 __________P___ -1 16.5263 117.532 4 11 289
1930199N12147 1930 34 WP MM NOT_NAMED 1930-07-24 06:00:00 NR 16.7477 117.031 main 298 301 __________P___ -1 16.7477 117.031 4 10 302
1930199N12147 1930 34 WP MM NOT_NAMED 1930-07-24 09:00:00 NR 17.0671 116.619 main 352 352 __________P___ -1 17.0671 116.619 4 10 312
1930199N12147 1930 34 WP MM NOT_NAMED 1930-07-24 10:00:00 NR 17.2000 116.500 main 365 365 __________O___ -1 17.2000 116.500 4 11 326
1930199N12147 1930 34 WP MM NOT_NAMED 1930-07-24 12:00:00 NR 17.5319 116.286 main 395 399 __________P___ -1 17.5319 116.286 4 12 334
1930199N12147 1930 34 WP MM NOT_NAMED 1930-07-24 15:00:00 NR 18.1255 116.034 main 451 421 __________P___ -1 18.1255 116.034 4 13 340
1930199N12147 1930 34 WP MM NOT_NAMED 1930-07-24 18:00:00 NR 18.7727 115.820 main 421 351 __________P___ -1 18.7727 115.820 4 14 342
1930199N12147 1930 34 WP MM NOT_NAMED 1930-07-24 21:00:00 NR 19.4047 115.590 main 351 326 __________P___ -1 19.4047 115.590 4 13 340
1930199N12147 1930 34 WP MM NOT_NAMED 1930-07-24 22:00:00 NR 19.6000 115.500 main 326 287 __________O___ -1 19.6000 115.500 4 12 329
1930199N12147 1930 34 WP MM NOT_NAMED 1930-07-25 00:00:00 NR 19.9103 115.264 main 287 232 __________P___ -1 19.9103 115.264 4 11 321
1930199N12147 1930 34 WP MM NOT_NAMED 1930-07-25 03:00:00 NR 20.3312 114.873 main 232 180 __________P___ -1 20.3312 114.873 4 11 317
1930199N12147 1930 34 WP MM NOT_NAMED 1930-07-25 06:00:00 NR 20.7320 114.457 main 180 123 __________P___ -1 20.7320 114.457 4 11 316
1930199N12147 1930 34 WP MM NOT_NAMED 1930-07-25 09:00:00 NR 21.1502 114.037 main 123 108 __________P___ -1 21.1502 114.037 4 12 318
1930199N12147 1930 34 WP MM NOT_NAMED 1930-07-25 10:00:00 NR 21.3000 113.900 main 108 63 __________O___ -1 21.3000 113.900 4 12 322
1930199N12147 1930 34 WP MM NOT_NAMED 1930-07-25 12:00:00 NR 21.6209 113.634 main 63 0 __________P___ -1 21.6209 113.634 4 13 325
1930199N12147 1930 34 WP MM NOT_NAMED 1930-07-25 15:00:00 NR 22.1476 113.252 main 0 0 __________P___ -1 22.1476 113.252 4 13 328
1930199N12147 1930 34 WP MM NOT_NAMED 1930-07-25 18:00:00 NR 22.7138 112.883 main 0 0 __________P___ -1 22.7138 112.883 4 13 330
1930199N12147 1930 34 WP MM NOT_NAMED 1930-07-25 21:00:00 NR 23.3020 112.521 main 0 0 __________P___ -1 23.3020 112.521 4 14 331
1930199N12147 1930 34 WP MM NOT_NAMED 1930-07-25 22:00:00 NR 23.5000 112.400 main 0 __________O___ -1 23.5000 112.400 4 14 331

Digital Typhoon Data and Search

About IBTrACS Database

This database is a web-friendly format of International Best Track Archive for Climate Stewardship (IBTrACS), a global best track data archive curated by NOAA dating back to 1842.

Updated: 2021-10-25